Don's Testing Zone


Current Conditions
weather data
source:

National Weather Service
Clear Russellville, AR
Clear, 73°F
Thursday, June 29, 2017 1:53 AM CDT
Temperature: 73°F/23°C
Humidity: 83%
Barometer: 29.91in/1012.0mb Barometer Steady
Wind: CALM at 0mph/0kmh
View other cities:
Searcy | Little Rock | Hot Springs | Russellville | More...
Astronomical Conditions (Clear Sky Clock)
Searcy Clear Sky Clock
    

Radar Images

NWS
    Wx Underground

NWS METAR weather data

ADDS - METARS form results





Aviation Digital Data Service (ADDS) Output produced by METARs form (0706 UTC 29 June 2017) found at http://www.aviationweather.gov/adds/metars/ 

KRUE 290653Z AUTO 00000KT 10SM CLR 23/20 A2991 RMK AO2 SLP120 T02280200 $

KRUE 290553Z AUTO 00000KT 10SM CLR 23/20 A2992 RMK AO2 SLP124 T02330200 1029420228 403110178 51006 $

KRUE 290453Z AUTO 00000KT 10SM CLR 23/21 A2992 RMK AO2 SLP124 T02330206 $

KRUE 290353Z AUTO 00000KT 10SM 23/21 A2992 RMK AO2 SLP124 T02330206 $

KRUE 290253Z AUTO 00000KT 10SM 24/21 A2991 RMK AO2 SLP119 T02390206 53005 $

KRUE 290153Z AUTO 00000KT 10SM 26/20 A2990 RMK AO2 SLP116 T02610200 $

KRUE 290053Z AUTO VRB04KT 10SM 28/20 A2989 RMK AO2 SLP113 T02830200 $

KRUE 282353Z AUTO VRB04KT 10SM 29/19 A2989 RMK AO2 SLP115 T02940194 10311 2028957012 $

KRUE 282253Z AUTO 14005KT 10SM 30/18 A2990 RMK AO2 SLP118 T03000183 $

KRUE 282153Z AUTO VRB04KT 10SM 31/18 A2992 RMK AO2 SLP123 T03060183 $

KRUE 282053Z AUTO 18005KT 10SM SCT060 30/19 A2993 RMK AO2 SLP126 T03000189 58022$

KRUE 281953Z AUTO 12005KT 10SM SCT055 29/18 A2995 RMK AO2 SLP133 T02940183

KRUE 281853Z AUTO VRB03KT 10SM FEW049 SCT055 29/18 A2997 RMK AO2 SLP141T02940183

KRUE 281753Z AUTO VRB04KT 10SM BKN044 BKN050 28/19 A2999 RMK AO2 SLP149T02830189 10300 20194 58008

KRUE 281653Z AUTO 00000KT 10SM CLR 29/19 A3001 RMK AO2 SLP152 T02890189

KRUE 281553Z AUTO 22005KT 10SM CLR 28/19 A3001 RMK AO2 SLP155 T02780194

KRUE 281453Z AUTO VRB05KT 10SM CLR 26/19 A3002 RMK AO2 SLP157 T02610189 50002

KRUE 281353Z AUTO 17005KT 10SM CLR 24/18 A3004 RMK AO2 SLP165 T02440183

KRUE 281253Z AUTO 00000KT 10SM CLR 23/18 A3003 RMK AO2 SLP161 T02280183

KRUE 281153Z AUTO 00000KT 10SM CLR 19/18 A3001 RMK AO2 SLP155 T01940183 1021120178 52007

KRUE 281053Z AUTO 00000KT 10SM CLR 18/18 A3000 RMK AO2 SLP153 T01830178

KRUE 280953Z AUTO 00000KT 10SM CLR 19/18 A3000 RMK AO2 SLP151 T01890178

KRUE 280853Z AUTO 00000KT 10SM CLR 21/18 A2999 RMK AO2 SLP149 T02060183 56008

KRUE 280753Z AUTO 00000KT 10SM CLR 21/18 A2999 RMK AO2 SLP149 T02110183